Terminal Aerodrome Forecast
Issued by NWS Mt. Holly, NJ

Home | Current Version | Previous Version | Text Only | Print | Product List | Glossary On
Versions: 1 2 3 4 5 6 7 8 9 10 11 12 13 14 15 16 17 18 19 20 21 22 23
000
FTUS41 KPHI 241501 AAA
TAFPHL
TAF AMD
KPHL 241501Z 2415/2518 03005KT P6SM SKC
     FM241800 06008KT P6SM SKC
     FM242300 19006KT P6SM SKC
     FM250600 VRB04KT P6SM SKC
     FM251300 05006KT P6SM FEW250=

USA.gov is the U.S. government's official web portal to all federal, state and local government web resources and services.